Time;durP1;ratioP1;P1;durP2;ratioP2;P2;SDS_P1;SDS_P2;PMS_P1;PMS_P2;Temp;Humidity;BMP_temperature;BMP_pressure;BME280_temperature;BME280_humidity;BME280_pressure;Samples;Min_cycle;Max_cycle;Signal;HPM_P1;HPM_P2
2021/07/27 00:01:33;;;;;;;4.17;3.57;;;16.60;99.90;;;;;;5109907;28;21027;-72
2021/07/27 00:04:00;;;;;;;3.60;3.07;;;16.50;99.90;;;;;;5110267;28;20467;-72
2021/07/27 00:06:26;;;;;;;3.50;3.10;;;16.40;99.90;;;;;;5110271;28;20921;-72
2021/07/27 00:08:53;;;;;;;4.93;3.60;;;16.40;99.90;;;;;;5110616;28;20493;-74
2021/07/27 00:11:20;;;;;;;4.63;3.40;;;16.40;99.90;;;;;;5110607;28;20475;-74
2021/07/27 00:13:47;;;;;;;4.37;3.97;;;16.40;99.90;;;;;;5109985;28;20444;-72
2021/07/27 00:16:14;;;;;;;3.30;2.93;;;16.40;99.90;;;;;;5111023;28;20531;-72
2021/07/27 00:18:42;;;;;;;4.30;3.90;;;16.30;99.90;;;;;;5109637;28;20440;-73
2021/07/27 00:21:09;;;;;;;4.60;3.60;;;16.30;99.90;;;;;;5112687;28;20509;-74
2021/07/27 00:23:38;;;;;;;6.10;3.67;;;16.30;99.90;;;;;;5113937;28;20862;-72
2021/07/27 00:26:11;;;;;;;5.00;3.40;;;16.40;99.90;;;;;;5113763;28;20454;-74
2021/07/27 00:28:38;;;;;;;8.50;3.97;;;16.40;99.90;;;;;;5114112;28;20861;-73
2021/07/27 00:31:04;;;;;;;5.77;3.90;;;16.40;99.90;;;;;;5113462;28;20530;-74
2021/07/27 00:33:31;;;;;;;5.17;3.23;;;16.30;99.90;;;;;;5113785;28;20575;-73
2021/07/27 00:36:02;;;;;;;3.63;3.27;;;16.30;99.90;;;;;;5113956;28;20530;-73
2021/07/27 00:38:29;;;;;;;4.57;3.13;;;16.30;99.90;;;;;;5114069;28;20443;-72
2021/07/27 00:40:56;;;;;;;4.63;4.13;;;16.30;99.90;;;;;;5113838;28;20538;-73
2021/07/27 00:43:23;;;;;;;4.03;3.60;;;16.20;99.90;;;;;;5113861;28;20516;-73
2021/07/27 00:45:50;;;;;;;8.30;4.80;;;16.20;99.90;;;;;;5114011;28;20530;-74
2021/07/27 00:48:17;;;;;;;9.73;4.10;;;16.20;99.90;;;;;;5113980;28;20451;-73
2021/07/27 00:50:44;;;;;;;7.50;3.93;;;16.30;99.90;;;;;;5113398;28;20461;-73
2021/07/27 00:53:12;;;;;;;4.20;3.27;;;16.40;99.90;;;;;;5113561;28;20851;-73
2021/07/27 00:55:41;;;;;;;3.83;2.93;;;16.30;99.90;;;;;;5113714;28;20448;-73
2021/07/27 00:58:08;;;;;;;4.53;3.67;;;16.30;99.90;;;;;;5113210;28;20443;-75
2021/07/27 01:00:35;;;;;;;6.33;3.57;;;16.30;99.90;;;;;;5113904;28;20810;-74
2021/07/27 01:03:01;;;;;;;4.80;3.60;;;16.30;99.90;;;;;;5113731;28;20447;-74
2021/07/27 01:05:29;;;;;;;5.87;4.73;;;16.10;99.90;;;;;;5113751;28;20479;-73
2021/07/27 01:07:58;;;;;;;3.80;3.37;;;16.10;99.90;;;;;;5113212;28;20523;-73
2021/07/27 01:10:26;;;;;;;3.50;3.20;;;16.00;99.90;;;;;;5113425;28;20443;-73
2021/07/27 01:12:53;;;;;;;7.13;4.90;;;16.00;99.90;;;;;;5112896;28;20483;-73
2021/07/27 01:15:20;;;;;;;4.57;3.50;;;16.00;99.90;;;;;;5113049;28;20617;-74
2021/07/27 01:17:47;;;;;;;6.13;4.03;;;16.10;99.90;;;;;;5112641;28;20456;-73
2021/07/27 01:20:21;;;;;;;4.23;3.80;;;16.00;99.90;;;;;;5113533;28;20484;-74
2021/07/27 01:39:26;;;;;;;5.73;4.30;;;16.00;99.90;;;;;;5100095;28;20938;-73
2021/07/27 01:42:12;;;;;;;5.70;4.90;;;16.00;99.90;;;;;;5112709;28;20528;-74
2021/07/27 01:44:44;;;;;;;5.90;4.17;;;16.10;99.90;;;;;;5112974;28;20471;-74
2021/07/27 01:47:12;;;;;;;5.97;4.40;;;16.10;99.90;;;;;;5113142;28;20936;-74
2021/07/27 01:49:39;;;;;;;6.33;4.23;;;16.10;99.90;;;;;;5112667;28;20432;-74
2021/07/27 01:52:10;;;;;;;7.30;3.70;;;16.00;99.90;;;;;;5111834;28;21001;-73
2021/07/27 01:54:54;;;;;;;5.33;3.77;;;15.90;99.90;;;;;;5112454;28;20522;-74
2021/07/27 01:57:21;;;;;;;8.00;4.23;;;15.90;99.90;;;;;;5112912;28;20496;-74
2021/07/27 02:00:04;;;;;;;5.47;4.60;;;15.90;99.90;;;;;;5112579;28;20530;-74
2021/07/27 02:02:31;;;;;;;6.00;4.40;;;15.90;99.90;;;;;;5112570;28;20447;-74
2021/07/27 02:04:58;;;;;;;4.60;4.13;;;15.90;99.90;;;;;;5112012;28;20867;-74
2021/07/27 02:07:25;;;;;;;5.33;4.43;;;15.90;99.90;;;;;;5112032;28;20475;-74
2021/07/27 02:09:59;;;;;;;5.57;4.57;;;16.00;99.90;;;;;;5112361;28;20523;-74
2021/07/27 02:12:35;;;;;;;4.87;4.30;;;16.00;99.90;;;;;;5111984;28;20479;-73
2021/07/27 02:15:16;;;;;;;7.10;4.73;;;16.00;99.90;;;;;;5111710;28;20439;-73
2021/07/27 02:17:44;;;;;;;4.93;4.43;;;16.00;99.90;;;;;;5112188;28;20530;-74
2021/07/27 02:20:12;;;;;;;6.00;4.47;;;16.00;99.90;;;;;;5111636;28;20544;-73
2021/07/27 02:22:39;;;;;;;5.40;4.30;;;15.90;99.90;;;;;;5112246;28;20491;-74
2021/07/27 02:25:10;;;;;;;5.63;3.40;;;15.90;99.90;;;;;;5111370;28;20538;-74
2021/07/27 02:27:36;;;;;;;6.17;4.90;;;15.80;99.90;;;;;;5112473;28;20448;-74
2021/07/27 02:30:06;;;;;;;5.23;3.97;;;15.80;99.90;;;;;;5111875;28;20522;-73
2021/07/27 02:32:34;;;;;;;4.73;4.20;;;15.70;99.90;;;;;;5111953;28;20472;-75
2021/07/27 02:35:01;;;;;;;7.00;5.00;;;15.80;99.90;;;;;;5111343;28;20432;-74
2021/07/27 02:37:30;;;;;;;5.47;4.20;;;15.70;99.90;;;;;;5096147;28;20539;-75
2021/07/27 02:39:57;;;;;;;6.50;4.70;;;15.60;99.90;;;;;;5111228;28;20931;-74
2021/07/27 02:42:25;;;;;;;5.17;4.20;;;15.60;99.90;;;;;;5111044;28;20446;-73
2021/07/27 02:44:53;;;;;;;5.33;4.80;;;15.70;99.90;;;;;;5111170;28;20820;-74
2021/07/27 02:47:19;;;;;;;4.43;3.90;;;15.80;99.90;;;;;;5111929;28;20478;-73
2021/07/27 02:49:46;;;;;;;8.33;4.70;;;15.60;99.90;;;;;;5094200;28;20547;-73
2021/07/27 02:52:14;;;;;;;7.87;5.13;;;15.60;99.90;;;;;;5111634;28;22411;-74
2021/07/27 02:54:41;;;;;;;7.63;5.70;;;15.60;99.90;;;;;;5111487;28;20440;-73
2021/07/27 02:57:08;;;;;;;7.60;5.50;;;15.60;99.90;;;;;;5111771;28;20848;-73
2021/07/27 02:59:36;;;;;;;5.67;5.10;;;15.60;99.90;;;;;;5111129;28;20518;-73
2021/07/27 03:02:03;;;;;;;7.00;5.07;;;15.60;99.90;;;;;;5111095;28;20883;-73
2021/07/27 03:04:30;;;;;;;9.17;4.87;;;15.60;99.90;;;;;;5110638;28;20454;-73
2021/07/27 03:06:57;;;;;;;8.57;5.57;;;15.60;99.90;;;;;;5109921;28;20526;-73
2021/07/27 03:09:25;;;;;;;5.37;4.87;;;15.70;99.90;;;;;;5111143;28;20794;-74
2021/07/27 03:11:52;;;;;;;8.57;5.00;;;15.80;99.90;;;;;;5105973;28;21026;-74
2021/07/27 03:14:19;;;;;;;5.50;4.27;;;15.90;99.90;;;;;;5105430;28;20914;-77
2021/07/27 03:16:48;;;;;;;6.70;5.30;;;15.90;99.90;;;;;;5110573;28;20973;-78
2021/07/27 03:19:15;;;;;;;8.40;5.03;;;15.80;99.90;;;;;;5110073;28;20463;-78
2021/07/27 03:21:42;;;;;;;5.83;4.47;;;15.80;99.90;;;;;;5110703;28;20841;-78
2021/07/27 03:24:09;;;;;;;5.60;4.30;;;15.80;99.90;;;;;;5111572;28;20923;-77
2021/07/27 03:26:36;;;;;;;12.17;4.60;;;15.90;99.90;;;;;;5110730;28;20779;-77
2021/07/27 03:29:02;;;;;;;5.40;4.90;;;16.00;99.90;;;;;;5098039;28;20442;-77
2021/07/27 03:31:30;;;;;;;8.17;4.80;;;16.00;99.90;;;;;;5093688;28;20541;-76
2021/07/27 03:34:00;;;;;;;5.27;4.77;;;16.00;99.90;;;;;;5104121;28;20479;-79
2021/07/27 03:36:27;;;;;;;7.73;5.13;;;15.90;99.90;;;;;;5111016;28;20943;-73
2021/07/27 03:38:55;;;;;;;5.30;4.40;;;15.90;99.90;;;;;;5120042;28;20979;-74
2021/07/27 03:41:23;;;;;;;8.13;4.73;;;15.90;99.90;;;;;;5111489;28;20440;-73
2021/07/27 03:43:50;;;;;;;5.40;4.90;;;15.80;99.90;;;;;;5111110;28;20458;-73
2021/07/27 03:46:17;;;;;;;9.57;4.30;;;15.80;99.90;;;;;;5111064;28;20462;-73
2021/07/27 03:48:44;;;;;;;7.53;4.40;;;15.90;99.90;;;;;;5110639;28;20539;-73
2021/07/27 03:51:14;;;;;;;6.93;5.63;;;15.90;99.90;;;;;;5111110;28;20459;-73
2021/07/27 03:53:41;;;;;;;11.23;10.13;;;15.90;99.90;;;;;;5111404;28;20481;-75
2021/07/27 03:56:11;;;;;;;6.57;4.80;;;15.90;99.90;;;;;;5114661;28;20436;-72
2021/07/27 03:58:38;;;;;;;5.73;5.10;;;15.90;99.90;;;;;;5113805;28;20896;-72
2021/07/27 04:01:06;;;;;;;6.90;5.30;;;16.00;99.90;;;;;;5114681;28;20479;-71
2021/07/27 04:03:33;;;;;;;5.70;5.20;;;16.00;99.90;;;;;;5103711;28;20444;-71
2021/07/27 04:06:00;;;;;;;5.60;4.50;;;15.90;99.90;;;;;;5101759;28;20809;-71
2021/07/27 04:08:28;;;;;;;12.20;5.37;;;15.90;99.90;;;;;;5114023;28;20447;-72
2021/07/27 04:11:00;;;;;;;5.37;4.87;;;15.80;99.90;;;;;;5114923;28;20446;-75
2021/07/27 04:13:27;;;;;;;5.10;4.60;;;15.70;99.90;;;;;;5114947;28;20909;-76
2021/07/27 04:15:54;;;;;;;7.47;5.70;;;15.70;99.90;;;;;;5115147;28;20543;-76
2021/07/27 04:18:21;;;;;;;10.00;5.10;;;15.70;99.90;;;;;;5115082;28;20475;-78
2021/07/27 04:20:47;;;;;;;6.63;6.00;;;15.70;99.90;;;;;;5114017;28;20477;-76
2021/07/27 04:23:15;;;;;;;5.57;5.07;;;15.70;99.90;;;;;;5113972;28;20534;-78
2021/07/27 04:25:44;;;;;;;5.60;4.97;;;15.80;99.90;;;;;;5114693;28;20435;-77
2021/07/27 04:28:11;;;;;;;6.13;5.60;;;15.70;99.90;;;;;;5114559;28;20452;-78
2021/07/27 04:30:38;;;;;;;6.60;4.50;;;15.70;99.90;;;;;;5114936;28;20444;-76
2021/07/27 04:33:04;;;;;;;5.40;4.60;;;15.70;99.90;;;;;;5114268;28;20482;-77
2021/07/27 04:35:31;;;;;;;6.83;5.33;;;15.80;99.90;;;;;;5114545;28;20447;-77
2021/07/27 04:37:59;;;;;;;7.20;5.93;;;15.80;99.90;;;;;;5114205;28;20522;-77
2021/07/27 04:40:26;;;;;;;5.87;5.13;;;15.80;99.90;;;;;;5114430;28;20475;-78
2021/07/27 04:42:54;;;;;;;7.10;5.60;;;15.80;99.90;;;;;;5114022;28;20530;-77
2021/07/27 04:45:21;;;;;;;6.03;5.40;;;15.80;99.90;;;;;;5114488;28;20534;-78
2021/07/27 04:47:48;;;;;;;6.97;6.27;;;15.80;99.90;;;;;;5114170;28;20475;-78
2021/07/27 04:50:15;;;;;;;9.20;5.90;;;15.80;99.90;;;;;;5114062;28;20518;-79
2021/07/27 04:52:49;;;;;;;8.20;6.10;;;15.80;99.90;;;;;;5114177;28;20443;-79
2021/07/27 04:55:16;;;;;;;6.03;5.43;;;15.80;99.90;;;;;;5113860;28;20493;-79
2021/07/27 04:57:43;;;;;;;7.20;5.20;;;15.90;99.90;;;;;;5114195;28;20453;-78
2021/07/27 05:00:17;;;;;;;7.00;5.70;;;15.90;99.90;;;;;;5114226;28;20432;-78
2021/07/27 05:02:44;;;;;;;5.77;4.80;;;16.00;99.90;;;;;;5113646;28;20510;-77
2021/07/27 05:05:11;;;;;;;7.10;5.37;;;16.00;99.90;;;;;;5113345;28;20472;-77
2021/07/27 05:07:38;;;;;;;5.63;5.13;;;16.10;99.90;;;;;;5113642;28;20446;-77
2021/07/27 05:10:06;;;;;;;8.50;6.03;;;16.40;99.90;;;;;;5113657;28;20458;-77
2021/07/27 05:12:36;;;;;;;7.57;5.53;;;16.50;99.90;;;;;;5113931;28;20514;-77
2021/07/27 05:15:02;;;;;;;8.20;7.13;;;16.40;99.90;;;;;;5113225;28;20481;-77
2021/07/27 05:17:31;;;;;;;9.97;6.70;;;16.40;99.90;;;;;;5113865;28;20531;-77
2021/07/27 05:19:58;;;;;;;6.23;5.63;;;16.50;99.90;;;;;;5112902;28;20562;-77
2021/07/27 05:22:25;;;;;;;7.10;6.40;;;16.40;99.90;;;;;;5113394;28;20448;-77
2021/07/27 05:24:53;;;;;;;6.77;6.07;;;16.50;99.90;;;;;;5113015;28;21003;-78
2021/07/27 05:27:20;;;;;;;8.60;5.47;;;16.60;99.90;;;;;;5113612;28;20555;-77
2021/07/27 05:29:48;;;;;;;7.90;5.60;;;16.60;99.90;;;;;;5112943;28;20479;-77
2021/07/27 05:32:15;;;;;;;6.73;5.80;;;16.70;99.90;;;;;;5113490;28;20518;-78
2021/07/27 05:34:44;;;;;;;7.20;5.03;;;16.80;99.90;;;;;;5113256;28;20566;-77
2021/07/27 05:37:10;;;;;;;8.60;6.10;;;16.90;99.90;;;;;;5113318;28;20492;-77
2021/07/27 05:39:37;;;;;;;8.67;5.30;;;16.90;99.90;;;;;;5113478;28;20447;-77
2021/07/27 05:42:05;;;;;;;6.43;5.83;;;17.00;99.90;;;;;;5112799;28;20448;-76
2021/07/27 05:44:32;;;;;;;11.00;5.77;;;17.10;99.90;;;;;;5113085;28;20531;-78
2021/07/27 05:47:00;;;;;;;6.00;5.30;;;;;;;;;;5112838;28;20805;-78
2021/07/27 05:49:28;;;;;;;8.00;5.03;;;17.20;99.90;;;;;;5112825;28;20447;-76
2021/07/27 05:51:57;;;;;;;7.77;5.27;;;17.40;99.90;;;;;;5112766;28;20531;-78
2021/07/27 05:54:25;;;;;;;8.80;6.30;;;17.60;99.90;;;;;;5113083;28;20569;-78
2021/07/27 05:56:52;;;;;;;6.00;5.27;;;17.70;99.90;;;;;;5112655;28;20479;-76
2021/07/27 05:59:20;;;;;;;7.70;5.67;;;17.70;99.90;;;;;;5113073;28;20492;-77
2021/07/27 06:01:47;;;;;;;5.90;5.40;;;17.80;99.90;;;;;;5112347;28;20535;-78
2021/07/27 06:04:14;;;;;;;5.93;5.20;;;18.00;99.90;;;;;;5113088;28;20519;-78
2021/07/27 06:06:41;;;;;;;7.07;5.27;;;18.10;99.90;;;;;;5112812;28;20446;-77
2021/07/27 06:09:11;;;;;;;7.03;5.33;;;18.30;99.90;;;;;;5113218;28;20455;-78
2021/07/27 06:11:39;;;;;;;9.23;5.57;;;;;;;;;;5112824;28;20444;-77
2021/07/27 06:14:07;;;;;;;7.00;5.97;;;;;;;;;;5112176;28;20471;-77
2021/07/27 06:16:36;;;;;;;6.20;4.83;;;;;;;;;;5112615;28;20440;-77
2021/07/27 06:19:03;;;;;;;5.13;4.63;;;;;;;;;;5112392;28;20440;-77
2021/07/27 06:21:30;;;;;;;5.50;4.67;;;;;;;;;;5112450;28;20569;-77
2021/07/27 06:23:57;;;;;;;5.60;5.03;;;;;;;;;;5112260;28;20951;-77
2021/07/27 06:26:26;;;;;;;7.67;4.70;;;;;;;;;;5112429;28;20530;-78
2021/07/27 06:28:53;;;;;;;6.30;5.07;;;;;;;;;;5111943;28;20826;-77
2021/07/27 06:31:20;;;;;;;5.90;5.30;;;;;;;;;;5112309;28;20551;-77
2021/07/27 06:33:48;;;;;;;5.10;4.60;;;;;;;;;;5111854;28;20887;-78
2021/07/27 06:36:15;;;;;;;4.70;4.30;;;;;;;;;;5112198;28;20458;-79
2021/07/27 06:38:43;;;;;;;8.00;5.10;;;;;;;;;;5112654;28;20841;-77
2021/07/27 06:41:10;;;;;;;6.73;5.30;;;;;;;;;;5112426;28;20536;-77
2021/07/27 06:43:40;;;;;;;7.80;4.63;;;;;;;;;;5112277;28;20452;-79
2021/07/27 06:46:07;;;;;;;8.90;6.60;;;;;;;;;;5111791;28;20535;-78
2021/07/27 06:48:35;;;;;;;6.33;4.67;;;;;;;;;;5112325;28;20863;-78
2021/07/27 06:51:09;;;;;;;6.03;4.87;;;;;;;;;;5111663;28;20948;-77
2021/07/27 06:53:36;;;;;;;6.73;4.73;;;;;;;;;;5112080;28;20472;-77
2021/07/27 06:56:03;;;;;;;5.10;4.60;;;;;;;;;;5111845;28;20446;-77
2021/07/27 06:58:30;;;;;;;5.50;4.70;;;;;;;;;;5112339;28;20797;-77
2021/07/27 07:01:01;;;;;;;6.93;4.77;;;;;;;;;;5111627;28;21034;-78
2021/07/27 07:03:28;;;;;;;5.00;4.47;;;;;;;;;;5112024;28;20534;-77
2021/07/27 07:05:55;;;;;;;5.97;4.90;;;;;;;;;;5111308;28;20432;-78
2021/07/27 07:08:23;;;;;;;6.00;4.40;;;;;;;;;;5111767;28;20454;-77
2021/07/27 07:10:55;;;;;;;5.80;4.40;;;;;;;;;;5111178;28;20446;-78
2021/07/27 07:13:22;;;;;;;5.17;4.67;;;;;;;;;;5111887;28;20438;-77
2021/07/27 07:15:49;;;;;;;4.70;4.07;;;;;;;;;;5111364;28;20539;-77
2021/07/27 07:18:18;;;;;;;4.57;4.13;;;;;;;;;;5111738;28;20522;-77
2021/07/27 07:20:45;;;;;;;5.07;4.53;;;;;;;;;;5111188;28;20967;-77
2021/07/27 07:23:12;;;;;;;6.37;5.00;;;;;;;;;;5111342;28;20448;-77
2021/07/27 07:25:42;;;;;;;7.97;5.10;;;;;;;;;;5111569;28;20848;-77
2021/07/27 07:28:10;;;;;;;4.60;3.77;;;;;;;;;;5111315;28;20526;-77
2021/07/27 07:30:37;;;;;;;4.97;4.43;;;;;;;;;;5111223;28;20444;-77
2021/07/27 07:33:04;;;;;;;5.00;4.40;;;;;;;;;;5110328;28;21078;-76
2021/07/27 07:35:33;;;;;;;4.50;4.10;;;;;;;;;;5111341;28;20566;-78
2021/07/27 07:38:00;;;;;;;4.60;4.20;;;;;;;;;;5110951;28;20467;-78
2021/07/27 07:40:28;;;;;;;4.60;4.10;;;;;;;;;;5111477;28;20474;-79
2021/07/27 07:42:57;;;;;;;5.33;4.57;;;;;;;;;;5111047;28;20526;-78
2021/07/27 07:45:24;;;;;;;6.07;4.80;;;;;;;;;;5111176;28;20486;-76
2021/07/27 07:47:51;;;;;;;5.10;4.60;;;;;;;;;;5110964;28;20448;-78
2021/07/27 07:50:19;;;;;;;5.67;4.80;;;;;;;;;;5111212;28;20590;-77
2021/07/27 07:52:47;;;;;;;5.30;4.50;;;;;;;;;;5110807;28;20446;-78
2021/07/27 07:55:15;;;;;;;5.60;5.10;;;;;;;;;;5111607;28;20475;-77
2021/07/27 07:57:42;;;;;;;5.40;4.40;;;;;;;;;;5111021;28;20936;-77
2021/07/27 08:00:09;;;;;;;4.40;4.00;;;;;;;;;;5111322;28;20439;-78
2021/07/27 08:02:36;;;;;;;5.40;5.00;;;;;;;;;;5111175;28;20558;-79
2021/07/27 08:05:03;;;;;;;5.60;5.10;;;18.40;99.90;;;;;;5110601;28;20782;-76
2021/07/27 08:07:30;;;;;;;4.63;3.80;;;22.00;99.90;;;;;;5111299;28;20447;-78
2021/07/27 08:09:59;;;;;;;4.73;4.30;;;21.90;1.00;;;;;;5110805;28;20447;-78
2021/07/27 08:12:25;;;;;;;4.63;4.23;;;22.10;99.90;;;;;;5111129;28;20868;-79
2021/07/27 08:14:52;;;;;;;5.83;4.70;;;22.10;99.90;;;;;;5110627;28;20935;-78
2021/07/27 08:17:19;;;;;;;4.80;4.30;;;21.90;30.00;;;;;;5111357;28;20970;-78
2021/07/27 08:19:46;;;;;;;4.40;4.00;;;22.10;99.70;;;;;;5111751;28;20514;-78
2021/07/27 08:22:13;;;;;;;7.23;4.20;;;22.20;99.90;;;;;;5117970;28;20602;-77
2021/07/27 08:24:40;;;;;;;7.63;4.33;;;22.20;1.00;;;;;;5111135;28;20524;-77
2021/07/27 08:27:09;;;;;;;5.83;4.90;;;22.20;1.00;;;;;;5110635;28;20763;-77
2021/07/27 08:29:36;;;;;;;4.77;4.00;;;22.10;1.00;;;;;;5111113;28;20443;-77
2021/07/27 08:32:07;;;;;;;4.30;3.83;;;22.10;1.00;;;;;;5110535;28;21376;-77
2021/07/27 08:34:38;;;;;;;9.77;4.80;;;22.30;99.90;;;;;;5111043;28;20506;-77
2021/07/27 08:37:05;;;;;;;6.00;4.53;;;22.30;99.90;;;;;;5110261;28;20442;-76
2021/07/27 08:39:33;;;;;;;6.50;5.00;;;;;;;;;;5110558;28;20479;-77
2021/07/27 08:42:01;;;;;;;5.03;4.57;;;;;;;;;;5113103;28;20522;-78
2021/07/27 08:44:31;;;;;;;6.83;4.40;;;;;;;;;;5114217;28;20815;-77
2021/07/27 08:46:59;;;;;;;5.40;4.30;;;;;;;;;;5114365;28;20815;-77
2021/07/27 08:49:27;;;;;;;5.53;4.37;;;;;;;;;;5114371;28;20439;-77
2021/07/27 08:51:54;;;;;;;5.60;4.50;;;;;;;;;;5113809;28;20537;-77
2021/07/27 08:54:21;;;;;;;5.30;4.77;;;;;;;;;;5114386;28;20475;-77
2021/07/27 08:56:49;;;;;;;6.00;4.87;;;;;;;;;;5114084;28;20450;-77
2021/07/27 08:59:16;;;;;;;9.67;5.50;;;;;;;;;;5114287;28;20435;-77
2021/07/27 09:01:45;;;;;;;4.47;4.03;;;;;;;;;;5114017;28;20526;-77
2021/07/27 09:04:13;;;;;;;5.30;4.80;;;;;;;;;;5113988;28;20835;-78
2021/07/27 09:06:41;;;;;;;6.13;5.00;;;;;;;;;;5113719;28;20435;-77
2021/07/27 09:09:09;;;;;;;5.67;5.07;;;;;;;;;;5113697;28;20530;-77
2021/07/27 09:11:44;;;;;;;8.90;5.20;;;;;;;;;;5113855;28;20443;-77
2021/07/27 09:14:13;;;;;;;6.83;5.30;;;;;;;;;;5114079;28;20435;-76
2021/07/27 09:16:44;;;;;;;6.07;5.40;;;;;;;;;;5114124;28;20526;-77
2021/07/27 09:19:13;;;;;;;5.90;5.40;;;;;;;;;;5113915;28;20943;-78
2021/07/27 09:21:42;;;;;;;5.40;4.90;;;;;;;;;;5113542;28;20558;-78
2021/07/27 09:24:09;;;;;;;6.03;5.00;;;;;;;;;;5113515;28;20991;-77
2021/07/27 09:26:36;;;;;;;5.10;4.60;;;;;;;;;;5113735;28;20448;-78
2021/07/27 09:29:04;;;;;;;5.90;5.30;;;;;;;;;;5113254;28;20814;-75
2021/07/27 09:31:32;;;;;;;5.90;4.70;;;;;;;;;;5113564;28;20443;-77
2021/07/27 09:34:10;;;;;;;5.30;4.80;;;;;;;;;;5113216;28;20522;-78
2021/07/27 09:36:39;;;;;;;6.20;5.20;;;;;;;;;;5113486;28;20447;-77
2021/07/27 09:39:07;;;;;;;5.40;4.90;;;;;;;;;;5113287;28;20877;-76
2021/07/27 09:41:34;;;;;;;5.80;5.20;;;;;;;;;;5113607;28;20522;-78
2021/07/27 09:44:01;;;;;;;4.70;4.20;;;;;;;;;;5113009;28;21014;-77
2021/07/27 09:46:30;;;;;;;5.30;4.90;;;;;;;;;;5113270;28;20432;-77
2021/07/27 09:49:02;;;;;;;5.00;4.50;;;;;;;;;;5112733;28;20935;-77
2021/07/27 09:51:30;;;;;;;5.27;4.77;;;;;;;;;;5112729;28;20507;-76
2021/07/27 09:53:59;;;;;;;4.80;4.20;;;;;;;;;;5113010;28;20479;-78
2021/07/27 09:56:26;;;;;;;4.90;4.50;;;;;;;;;;5113068;28;20490;-77
2021/07/27 09:58:53;;;;;;;5.20;4.70;;;;;;;;;;5112702;28;20539;-78
2021/07/27 10:01:22;;;;;;;5.07;4.57;;;;;;;;;;5113257;28;20522;-77
2021/07/27 10:03:53;;;;;;;4.97;4.57;;;;;;;;;;5112657;28;20452;-78
2021/07/27 10:06:25;;;;;;;4.33;3.93;;;;;;;;;;5112973;28;20479;-77
2021/07/27 10:08:55;;;;;;;4.70;4.30;;;;;;;;;;5112612;28;20440;-78
2021/07/27 10:11:35;;;;;;;4.00;3.70;;;;;;;;;;5112929;28;20489;-77
2021/07/27 10:14:07;;;;;;;6.80;5.13;;;22.20;99.90;;;;;;5112819;28;20943;-78
2021/07/27 10:16:35;;;;;;;6.83;4.10;;;25.00;99.90;;;;;;5112776;28;20475;-77
2021/07/27 10:19:14;;;;;;;4.40;4.00;;;25.40;99.90;;;;;;5112382;28;20468;-77
2021/07/27 10:21:42;;;;;;;4.33;3.73;;;25.40;99.90;;;;;;5112493;28;20976;-77
2021/07/27 10:24:16;;;;;;;3.83;3.47;;;24.90;99.90;;;;;;5112773;28;20504;-76
2021/07/27 10:26:46;;;;;;;4.53;4.00;;;25.10;99.90;;;;;;5112576;28;20440;-74
2021/07/27 10:29:13;;;;;;;4.50;4.10;;;24.90;99.90;;;;;;5113113;28;20432;-77
2021/07/27 10:31:41;;;;;;;4.57;4.17;;;25.30;99.90;;;;;;5119350;28;20557;-77
2021/07/27 10:34:09;;;;;;;6.23;3.80;;;24.90;99.90;;;;;;5112910;28;20499;-76
2021/07/27 10:36:38;;;;;;;4.20;3.80;;;24.90;99.90;;;;;;5112408;28;20475;-77
2021/07/27 10:39:13;;;;;;;5.63;4.53;;;25.20;99.90;;;;;;5112031;28;20446;-77
2021/07/27 10:41:42;;;;;;;4.80;4.30;;;25.70;99.90;;;;;;5113165;28;20444;-78
2021/07/27 10:44:12;;;;;;;4.30;3.90;;;25.60;99.90;;;;;;5112663;28;20446;-77
2021/07/27 10:46:44;;;;;;;5.20;4.13;;;25.80;99.90;;;;;;5112432;28;20451;-77
2021/07/27 10:49:21;;;;;;;6.17;4.80;;;25.90;99.90;;;;;;5112211;28;20478;-78
2021/07/27 10:51:48;;;;;;;4.90;4.40;;;25.80;99.90;;;;;;5111988;28;20442;-78
2021/07/27 10:54:16;;;;;;;4.23;3.83;;;25.70;99.90;;;;;;5112279;28;20491;-78
2021/07/27 10:56:58;;;;;;;5.70;5.10;;;25.60;99.90;;;;;;5111735;28;20504;-75
2021/07/27 10:59:30;;;;;;;6.90;4.23;;;25.40;99.90;;;;;;5111800;28;20530;-76
2021/07/27 11:01:58;;;;;;;4.00;3.70;;;25.30;99.90;;;;;;5111980;28;21299;-77
2021/07/27 11:04:29;;;;;;;6.70;6.10;;;25.90;99.90;;;;;;5111474;28;20471;-77
2021/07/27 11:07:10;;;;;;;4.27;3.70;;;26.00;99.90;;;;;;5111500;28;20927;-78
2021/07/27 11:09:47;;;;;;;4.40;4.00;;;26.00;99.90;;;;;;5111988;28;20439;-77
2021/07/27 11:12:14;;;;;;;4.53;4.13;;;26.80;99.90;;;;;;5111839;28;20984;-77
2021/07/27 11:14:42;;;;;;;4.10;3.70;;;26.90;99.90;;;;;;5111533;28;20477;-78
2021/07/27 11:17:09;;;;;;;3.83;3.47;;;26.50;99.90;;;;;;5112127;28;20455;-77
2021/07/27 11:19:38;;;;;;;5.80;4.27;;;26.50;99.90;;;;;;5111588;28;21007;-77
2021/07/27 11:22:05;;;;;;;4.13;3.77;;;26.50;99.90;;;;;;5111116;28;20443;-77
2021/07/27 11:24:33;;;;;;;4.90;4.23;;;26.90;99.90;;;;;;5111615;28;20451;-78
2021/07/27 11:27:00;;;;;;;4.17;3.77;;;27.20;99.90;;;;;;5111236;28;20466;-78
2021/07/27 11:29:27;;;;;;;4.60;4.13;;;27.30;99.90;;;;;;5111696;28;20520;-78
2021/07/27 11:31:55;;;;;;;5.00;4.60;;;27.30;99.90;;;;;;5111320;28;20567;-78
2021/07/27 11:34:30;;;;;;;5.77;4.63;;;27.00;99.90;;;;;;5111611;28;20474;-77
2021/07/27 11:36:58;;;;;;;5.90;5.00;;;27.10;99.90;;;;;;5111086;28;20496;-77
2021/07/27 11:39:25;;;;;;;4.80;4.07;;;27.10;99.90;;;;;;5111500;28;20469;-77
2021/07/27 11:42:02;;;;;;;4.33;3.93;;;27.20;99.90;;;;;;5110995;28;20485;-77
2021/07/27 11:44:30;;;;;;;4.57;3.53;;;27.00;99.90;;;;;;5111459;28;20645;-77
2021/07/27 11:46:58;;;;;;;4.30;3.90;;;26.70;99.90;;;;;;5111351;28;20467;-78
2021/07/27 11:49:27;;;;;;;4.60;4.20;;;26.50;99.90;;;;;;5111340;28;20464;-78
2021/07/27 11:52:02;;;;;;;3.97;3.57;;;26.90;99.90;;;;;;5111207;28;20472;-78
2021/07/27 11:54:29;;;;;;;4.20;3.80;;;26.10;99.90;;;;;;5111599;28;20446;-78
2021/07/27 11:56:56;;;;;;;6.37;3.97;;;26.10;99.90;;;;;;5110756;28;20562;-78
2021/07/27 11:59:30;;;;;;;4.07;3.67;;;26.00;99.90;;;;;;5111392;28;20546;-78
2021/07/27 12:01:58;;;;;;;4.80;4.30;;;26.00;99.90;;;;;;5111014;28;20936;-78
2021/07/27 12:04:25;;;;;;;3.97;3.53;;;26.40;99.90;;;;;;5111214;28;20449;-77
2021/07/27 12:06:54;;;;;;;3.90;3.50;;;26.70;99.90;;;;;;5111065;28;20455;-78
2021/07/27 12:09:22;;;;;;;4.33;3.93;;;26.50;99.90;;;;;;5111254;28;20443;-78
2021/07/27 12:11:50;;;;;;;3.87;3.57;;;26.30;99.90;;;;;;5110844;28;20940;-77
2021/07/27 12:14:17;;;;;;;3.83;3.40;;;26.60;99.90;;;;;;5110951;28;20522;-77
2021/07/27 12:16:44;;;;;;;4.37;3.90;;;26.50;99.90;;;;;;5114741;28;20478;-75
2021/07/27 12:19:12;;;;;;;4.33;3.67;;;26.70;99.90;;;;;;5114940;28;20826;-78
2021/07/27 12:21:39;;;;;;;5.03;4.20;;;26.60;99.90;;;;;;5114685;28;20509;-78
2021/07/27 12:24:07;;;;;;;3.93;3.47;;;26.90;99.90;;;;;;5114763;28;20441;-76
2021/07/27 12:26:36;;;;;;;3.83;3.50;;;26.70;99.90;;;;;;5115029;28;20454;-78
2021/07/27 12:29:03;;;;;;;4.00;3.60;;;26.40;99.90;;;;;;5114502;28;20537;-77
2021/07/27 12:31:30;;;;;;;4.20;3.67;;;26.30;99.90;;;;;;5114634;28;20457;-77
2021/07/27 12:33:57;;;;;;;4.50;4.00;;;26.70;99.90;;;;;;5114510;28;20514;-77
2021/07/27 12:36:25;;;;;;;4.27;3.77;;;26.90;99.90;;;;;;5114826;28;20573;-76
2021/07/27 12:38:52;;;;;;;3.73;3.43;;;27.00;99.90;;;;;;5114488;28;20478;-78
2021/07/27 12:41:19;;;;;;;4.27;3.63;;;27.70;99.90;;;;;;5114913;28;20456;-78
2021/07/27 12:43:46;;;;;;;3.87;3.50;;;27.60;99.90;;;;;;5114384;28;20517;-77
2021/07/27 12:46:13;;;;;;;4.27;3.97;;;27.50;99.90;;;;;;5114685;28;20437;-78
2021/07/27 12:48:40;;;;;;;8.97;4.07;;;27.40;99.90;;;;;;5114611;28;20534;-78
2021/07/27 12:51:08;;;;;;;3.73;3.43;;;27.00;99.90;;;;;;5113961;28;20482;-77
2021/07/27 12:53:36;;;;;;;4.00;3.50;;;27.10;99.90;;;;;;5114321;28;20438;-78
2021/07/27 12:56:03;;;;;;;6.20;3.27;;;26.90;99.90;;;;;;5113973;28;20810;-77
2021/07/27 12:58:31;;;;;;;3.50;3.00;;;27.40;98.70;;;;;;5114102;28;20451;-77
2021/07/27 13:00:58;;;;;;;3.77;3.40;;;27.40;93.60;;;;;;5113775;28;20449;-76
2021/07/27 13:03:25;;;;;;;3.03;2.83;;;27.70;94.80;;;;;;5114049;28;20534;-77
2021/07/27 13:05:53;;;;;;;4.67;3.13;;;27.80;90.90;;;;;;5113612;28;20508;-79
2021/07/27 13:08:20;;;;;;;4.23;3.87;;;27.90;89.80;;;;;;5114145;28;20530;-77
2021/07/27 13:10:49;;;;;;;5.03;3.73;;;27.70;89.40;;;;;;5113638;28;20435;-77
2021/07/27 13:13:16;;;;;;;4.70;3.67;;;27.30;91.00;;;;;;5113816;28;20951;-77
2021/07/27 13:15:43;;;;;;;3.73;3.30;;;26.90;93.70;;;;;;5113960;28;20927;-79
2021/07/27 13:18:10;;;;;;;3.97;3.57;;;26.90;95.50;;;;;;5114189;28;20538;-77
2021/07/27 13:20:37;;;;;;;4.40;4.00;;;27.10;95.50;;;;;;5113598;28;20471;-78
2021/07/27 13:23:04;;;;;;;4.70;4.03;;;27.50;88.00;;;;;;5113377;28;20534;-76
2021/07/27 13:25:31;;;;;;;4.00;3.60;;;27.40;87.30;;;;;;5113916;28;20534;-77
2021/07/27 13:27:59;;;;;;;3.73;3.43;;;27.30;96.50;;;;;;5112475;28;20443;-77
2021/07/27 13:30:26;;;;;;;3.93;3.53;;;27.00;91.90;;;;;;5113705;28;20466;-76
2021/07/27 13:32:54;;;;;;;3.93;3.57;;;27.00;92.60;;;;;;5113313;28;21006;-77
2021/07/27 13:35:21;;;;;;;4.30;3.90;;;27.20;91.10;;;;;;5113607;28;20479;-78
2021/07/27 13:37:47;;;;;;;4.13;3.80;;;26.70;94.00;;;;;;5113628;28;20518;-77